sensor_id;sensor_type;location;lat;lon;timestamp;temperature;humidity
34153;DHT22;20426;48.372;10.888;2023-05-16T00:00:20;10.60;99.90
34153;DHT22;20426;48.372;10.888;2023-05-16T00:00:51;10.50;99.90
34153;DHT22;20426;48.372;10.888;2023-05-16T00:01:27;10.50;99.90
34153;DHT22;20426;48.372;10.888;2023-05-16T00:01:59;10.60;99.90
34153;DHT22;20426;48.372;10.888;2023-05-16T00:02:30;10.60;99.90
34153;DHT22;20426;48.372;10.888;2023-05-16T00:03:01;10.60;99.90
34153;DHT22;20426;48.372;10.888;2023-05-16T00:03:35;10.50;99.90
34153;DHT22;20426;48.372;10.888;2023-05-16T00:04:09;10.50;99.90
34153;DHT22;20426;48.372;10.888;2023-05-16T00:04:39;10.50;99.90
34153;DHT22;20426;48.372;10.888;2023-05-16T00:05:10;10.50;99.90
34153;DHT22;20426;48.372;10.888;2023-05-16T00:05:44;10.50;99.90
34153;DHT22;20426;48.372;10.888;2023-05-16T00:06:15;10.50;99.90
34153;DHT22;20426;48.372;10.888;2023-05-16T00:06:46;10.50;99.90
34153;DHT22;20426;48.372;10.888;2023-05-16T00:07:17;10.50;99.90
34153;DHT22;20426;48.372;10.888;2023-05-16T00:07:47;10.50;99.90
34153;DHT22;20426;48.372;10.888;2023-05-16T00:08:18;10.40;99.90
34153;DHT22;20426;48.372;10.888;2023-05-16T00:08:49;10.40;99.90
34153;DHT22;20426;48.372;10.888;2023-05-16T00:09:20;10.40;99.90
34153;DHT22;20426;48.372;10.888;2023-05-16T00:09:51;10.40;99.90
34153;DHT22;20426;48.372;10.888;2023-05-16T00:10:21;10.40;99.90
34153;DHT22;20426;48.372;10.888;2023-05-16T00:10:52;10.40;99.90
34153;DHT22;20426;48.372;10.888;2023-05-16T00:11:23;10.40;99.90
34153;DHT22;20426;48.372;10.888;2023-05-16T00:11:54;10.40;99.90
34153;DHT22;20426;48.372;10.888;2023-05-16T00:12:24;10.40;99.90
34153;DHT22;20426;48.372;10.888;2023-05-16T00:12:55;10.40;99.90
34153;DHT22;20426;48.372;10.888;2023-05-16T00:13:28;10.40;99.90
34153;DHT22;20426;48.372;10.888;2023-05-16T00:13:59;10.40;99.90
34153;DHT22;20426;48.372;10.888;2023-05-16T00:14:30;10.40;99.90
34153;DHT22;20426;48.372;10.888;2023-05-16T00:15:02;10.40;99.90
34153;DHT22;20426;48.372;10.888;2023-05-16T00:15:34;10.40;99.90
34153;DHT22;20426;48.372;10.888;2023-05-16T00:16:05;10.40;99.90
34153;DHT22;20426;48.372;10.888;2023-05-16T00:16:36;10.40;99.90
34153;DHT22;20426;48.372;10.888;2023-05-16T00:17:07;10.40;99.90
34153;DHT22;20426;48.372;10.888;2023-05-16T00:17:41;10.30;99.90
34153;DHT22;20426;48.372;10.888;2023-05-16T00:18:16;10.40;99.90
34153;DHT22;20426;48.372;10.888;2023-05-16T00:18:47;10.40;99.90
34153;DHT22;20426;48.372;10.888;2023-05-16T00:19:19;10.30;99.90
34153;DHT22;20426;48.372;10.888;2023-05-16T00:19:49;10.30;99.90
34153;DHT22;20426;48.372;10.888;2023-05-16T00:20:27;10.30;99.90
34153;DHT22;20426;48.372;10.888;2023-05-16T00:20:58;10.30;99.90
34153;DHT22;20426;48.372;10.888;2023-05-16T00:21:29;10.30;99.90
34153;DHT22;20426;48.372;10.888;2023-05-16T00:22:00;10.30;99.90
34153;DHT22;20426;48.372;10.888;2023-05-16T00:22:31;10.30;99.90
34153;DHT22;20426;48.372;10.888;2023-05-16T00:23:02;10.30;99.90
34153;DHT22;20426;48.372;10.888;2023-05-16T00:23:33;10.20;99.90
34153;DHT22;20426;48.372;10.888;2023-05-16T00:24:04;10.30;99.90
34153;DHT22;20426;48.372;10.888;2023-05-16T00:24:35;10.20;99.90
34153;DHT22;20426;48.372;10.888;2023-05-16T00:25:06;10.20;99.90
34153;DHT22;20426;48.372;10.888;2023-05-16T00:25:38;10.20;99.90
34153;DHT22;20426;48.372;10.888;2023-05-16T00:26:10;10.20;99.90
34153;DHT22;20426;48.372;10.888;2023-05-16T00:26:40;10.20;99.90
34153;DHT22;20426;48.372;10.888;2023-05-16T00:27:11;10.20;99.90
34153;DHT22;20426;48.372;10.888;2023-05-16T00:27:42;10.20;99.90
34153;DHT22;20426;48.372;10.888;2023-05-16T00:28:13;10.20;99.90
34153;DHT22;20426;48.372;10.888;2023-05-16T00:28:44;10.20;99.90
34153;DHT22;20426;48.372;10.888;2023-05-16T00:29:14;10.20;99.90
34153;DHT22;20426;48.372;10.888;2023-05-16T00:29:45;10.20;99.90
34153;DHT22;20426;48.372;10.888;2023-05-16T00:30:15;10.20;99.90
34153;DHT22;20426;48.372;10.888;2023-05-16T00:30:46;10.20;99.90
34153;DHT22;20426;48.372;10.888;2023-05-16T00:31:17;10.20;99.90
34153;DHT22;20426;48.372;10.888;2023-05-16T00:31:48;10.20;99.90
34153;DHT22;20426;48.372;10.888;2023-05-16T00:32:18;10.20;99.90
34153;DHT22;20426;48.372;10.888;2023-05-16T00:32:49;10.20;99.90
34153;DHT22;20426;48.372;10.888;2023-05-16T00:33:20;10.20;99.90
34153;DHT22;20426;48.372;10.888;2023-05-16T00:33:50;10.20;99.90
34153;DHT22;20426;48.372;10.888;2023-05-16T00:34:21;10.20;99.90
34153;DHT22;20426;48.372;10.888;2023-05-16T00:34:52;10.20;99.90
34153;DHT22;20426;48.372;10.888;2023-05-16T00:35:23;10.20;99.90
34153;DHT22;20426;48.372;10.888;2023-05-16T00:35:53;10.30;99.90
34153;DHT22;20426;48.372;10.888;2023-05-16T00:36:24;10.30;99.90
34153;DHT22;20426;48.372;10.888;2023-05-16T00:36:55;10.20;99.90
34153;DHT22;20426;48.372;10.888;2023-05-16T00:37:26;10.20;99.90
34153;DHT22;20426;48.372;10.888;2023-05-16T00:37:56;10.20;99.90
34153;DHT22;20426;48.372;10.888;2023-05-16T00:38:27;10.20;99.90
34153;DHT22;20426;48.372;10.888;2023-05-16T00:38:58;10.30;99.90
34153;DHT22;20426;48.372;10.888;2023-05-16T00:39:28;10.30;99.90
34153;DHT22;20426;48.372;10.888;2023-05-16T00:40:00;10.30;99.90
34153;DHT22;20426;48.372;10.888;2023-05-16T00:40:31;10.30;99.90
34153;DHT22;20426;48.372;10.888;2023-05-16T00:41:02;10.30;99.90
34153;DHT22;20426;48.372;10.888;2023-05-16T00:41:33;10.30;99.90
34153;DHT22;20426;48.372;10.888;2023-05-16T00:42:04;10.20;99.90
34153;DHT22;20426;48.372;10.888;2023-05-16T00:42:35;10.20;99.90
34153;DHT22;20426;48.372;10.888;2023-05-16T00:43:06;10.20;99.90
34153;DHT22;20426;48.372;10.888;2023-05-16T00:43:37;10.20;99.90
34153;DHT22;20426;48.372;10.888;2023-05-16T00:44:09;10.20;99.90
34153;DHT22;20426;48.372;10.888;2023-05-16T00:44:40;10.20;99.90
34153;DHT22;20426;48.372;10.888;2023-05-16T00:45:10;10.20;99.90
34153;DHT22;20426;48.372;10.888;2023-05-16T00:45:41;10.20;99.90
34153;DHT22;20426;48.372;10.888;2023-05-16T00:46:12;10.20;99.90
34153;DHT22;20426;48.372;10.888;2023-05-16T00:46:43;10.20;99.90
34153;DHT22;20426;48.372;10.888;2023-05-16T00:47:13;10.20;99.90
34153;DHT22;20426;48.372;10.888;2023-05-16T00:47:44;10.20;99.90
34153;DHT22;20426;48.372;10.888;2023-05-16T00:48:15;10.20;99.90
34153;DHT22;20426;48.372;10.888;2023-05-16T00:48:46;10.10;99.90
34153;DHT22;20426;48.372;10.888;2023-05-16T00:49:16;10.10;99.90
34153;DHT22;20426;48.372;10.888;2023-05-16T00:49:47;10.10;99.90
34153;DHT22;20426;48.372;10.888;2023-05-16T00:50:18;10.20;99.90
34153;DHT22;20426;48.372;10.888;2023-05-16T00:50:49;10.20;99.90
34153;DHT22;20426;48.372;10.888;2023-05-16T00:51:22;10.20;99.90
34153;DHT22;20426;48.372;10.888;2023-05-16T00:51:52;10.20;99.90
34153;DHT22;20426;48.372;10.888;2023-05-16T00:52:23;10.20;99.90
34153;DHT22;20426;48.372;10.888;2023-05-16T00:52:54;10.10;99.90
34153;DHT22;20426;48.372;10.888;2023-05-16T00:53:25;10.10;99.90
34153;DHT22;20426;48.372;10.888;2023-05-16T00:53:57;10.10;99.90
34153;DHT22;20426;48.372;10.888;2023-05-16T00:54:29;10.10;99.90
34153;DHT22;20426;48.372;10.888;2023-05-16T00:55:00;10.10;99.90
34153;DHT22;20426;48.372;10.888;2023-05-16T00:55:31;10.20;99.90
34153;DHT22;20426;48.372;10.888;2023-05-16T00:56:02;10.20;99.90
34153;DHT22;20426;48.372;10.888;2023-05-16T00:56:33;10.20;99.90
34153;DHT22;20426;48.372;10.888;2023-05-16T00:57:04;10.20;99.90
34153;DHT22;20426;48.372;10.888;2023-05-16T00:57:39;10.20;99.90
34153;DHT22;20426;48.372;10.888;2023-05-16T00:58:10;10.10;99.90
34153;DHT22;20426;48.372;10.888;2023-05-16T00:58:41;10.10;99.90
34153;DHT22;20426;48.372;10.888;2023-05-16T00:59:12;10.10;99.90
34153;DHT22;20426;48.372;10.888;2023-05-16T00:59:47;10.10;99.90
34153;DHT22;20426;48.372;10.888;2023-05-16T01:00:18;10.10;99.90
34153;DHT22;20426;48.372;10.888;2023-05-16T01:00:49;10.20;99.90
34153;DHT22;20426;48.372;10.888;2023-05-16T01:01:22;10.10;99.90
34153;DHT22;20426;48.372;10.888;2023-05-16T01:01:54;10.20;99.90
34153;DHT22;20426;48.372;10.888;2023-05-16T01:02:26;10.20;99.90
34153;DHT22;20426;48.372;10.888;2023-05-16T01:02:58;10.20;99.90
34153;DHT22;20426;48.372;10.888;2023-05-16T01:03:30;10.20;99.90
34153;DHT22;20426;48.372;10.888;2023-05-16T01:04:01;10.20;99.90
34153;DHT22;20426;48.372;10.888;2023-05-16T01:04:32;10.20;99.90
34153;DHT22;20426;48.372;10.888;2023-05-16T01:05:03;10.20;99.90
34153;DHT22;20426;48.372;10.888;2023-05-16T01:05:37;10.20;99.90
34153;DHT22;20426;48.372;10.888;2023-05-16T01:06:08;10.20;99.90
34153;DHT22;20426;48.372;10.888;2023-05-16T01:06:39;10.20;99.90
34153;DHT22;20426;48.372;10.888;2023-05-16T01:07:10;10.30;99.90
34153;DHT22;20426;48.372;10.888;2023-05-16T01:07:41;10.30;99.90
34153;DHT22;20426;48.372;10.888;2023-05-16T01:08:12;10.30;99.90
34153;DHT22;20426;48.372;10.888;2023-05-16T01:08:42;10.30;99.90
34153;DHT22;20426;48.372;10.888;2023-05-16T01:09:13;10.30;99.90
34153;DHT22;20426;48.372;10.888;2023-05-16T01:09:44;10.30;99.90
34153;DHT22;20426;48.372;10.888;2023-05-16T01:10:15;10.30;99.90
34153;DHT22;20426;48.372;10.888;2023-05-16T01:10:49;10.30;99.90
34153;DHT22;20426;48.372;10.888;2023-05-16T01:13:26;10.30;99.90
34153;DHT22;20426;48.372;10.888;2023-05-16T01:14:59;10.20;99.90
34153;DHT22;20426;48.372;10.888;2023-05-16T01:15:38;10.20;99.90
34153;DHT22;20426;48.372;10.888;2023-05-16T01:16:17;10.20;99.90
34153;DHT22;20426;48.372;10.888;2023-05-16T01:17:52;10.20;99.90
34153;DHT22;20426;48.372;10.888;2023-05-16T01:19:13;10.20;99.90
34153;DHT22;20426;48.372;10.888;2023-05-16T01:20:48;10.20;99.90
34153;DHT22;20426;48.372;10.888;2023-05-16T01:21:44;10.20;99.90
34153;DHT22;20426;48.372;10.888;2023-05-16T01:23:32;10.10;99.90
34153;DHT22;20426;48.372;10.888;2023-05-16T01:24:13;10.10;99.90
34153;DHT22;20426;48.372;10.888;2023-05-16T01:25:45;10.10;99.90
34153;DHT22;20426;48.372;10.888;2023-05-16T01:26:45;10.10;99.90
34153;DHT22;20426;48.372;10.888;2023-05-16T01:27:16;10.10;99.90
34153;DHT22;20426;48.372;10.888;2023-05-16T01:27:48;10.10;99.90
34153;DHT22;20426;48.372;10.888;2023-05-16T01:28:19;10.10;99.90
34153;DHT22;20426;48.372;10.888;2023-05-16T01:28:51;10.10;99.90
34153;DHT22;20426;48.372;10.888;2023-05-16T01:29:22;10.10;99.90
34153;DHT22;20426;48.372;10.888;2023-05-16T01:29:56;10.00;99.90
34153;DHT22;20426;48.372;10.888;2023-05-16T01:30:32;10.00;99.90
34153;DHT22;20426;48.372;10.888;2023-05-16T01:31:04;10.00;99.90
34153;DHT22;20426;48.372;10.888;2023-05-16T01:31:35;10.00;99.90
34153;DHT22;20426;48.372;10.888;2023-05-16T01:32:06;10.00;99.90
34153;DHT22;20426;48.372;10.888;2023-05-16T01:32:37;10.00;99.90
34153;DHT22;20426;48.372;10.888;2023-05-16T01:33:08;10.00;99.90
34153;DHT22;20426;48.372;10.888;2023-05-16T01:33:39;10.00;99.90
34153;DHT22;20426;48.372;10.888;2023-05-16T01:34:10;10.00;99.90
34153;DHT22;20426;48.372;10.888;2023-05-16T01:34:40;10.00;99.90
34153;DHT22;20426;48.372;10.888;2023-05-16T01:35:14;10.00;99.90
34153;DHT22;20426;48.372;10.888;2023-05-16T01:36:02;10.00;99.90
34153;DHT22;20426;48.372;10.888;2023-05-16T01:37:20;10.00;99.90
34153;DHT22;20426;48.372;10.888;2023-05-16T01:38:02;10.00;99.90
34153;DHT22;20426;48.372;10.888;2023-05-16T01:39:00;10.00;99.90
34153;DHT22;20426;48.372;10.888;2023-05-16T01:39:44;10.00;99.90
34153;DHT22;20426;48.372;10.888;2023-05-16T01:40:38;10.00;99.90
34153;DHT22;20426;48.372;10.888;2023-05-16T01:41:18;10.00;99.90
34153;DHT22;20426;48.372;10.888;2023-05-16T01:42:06;10.00;99.90
34153;DHT22;20426;48.372;10.888;2023-05-16T01:42:42;10.00;99.90
34153;DHT22;20426;48.372;10.888;2023-05-16T01:43:18;10.00;99.90
34153;DHT22;20426;48.372;10.888;2023-05-16T01:43:54;10.00;99.90
34153;DHT22;20426;48.372;10.888;2023-05-16T01:45:11;10.00;99.90
34153;DHT22;20426;48.372;10.888;2023-05-16T01:45:50;10.00;99.90
34153;DHT22;20426;48.372;10.888;2023-05-16T01:46:26;10.00;99.90
34153;DHT22;20426;48.372;10.888;2023-05-16T01:47:01;10.00;99.90
34153;DHT22;20426;48.372;10.888;2023-05-16T01:47:35;10.00;99.90
34153;DHT22;20426;48.372;10.888;2023-05-16T01:48:16;10.00;99.90
34153;DHT22;20426;48.372;10.888;2023-05-16T01:49:19;10.00;99.90
34153;DHT22;20426;48.372;10.888;2023-05-16T01:50:13;10.00;99.90
34153;DHT22;20426;48.372;10.888;2023-05-16T01:50:54;10.00;99.90
34153;DHT22;20426;48.372;10.888;2023-05-16T01:51:29;10.00;99.90
34153;DHT22;20426;48.372;10.888;2023-05-16T01:52:07;10.00;99.90
34153;DHT22;20426;48.372;10.888;2023-05-16T01:52:59;10.00;99.90
34153;DHT22;20426;48.372;10.888;2023-05-16T01:53:37;10.00;99.90
34153;DHT22;20426;48.372;10.888;2023-05-16T01:54:11;10.00;99.90
34153;DHT22;20426;48.372;10.888;2023-05-16T01:54:44;10.00;99.90
34153;DHT22;20426;48.372;10.888;2023-05-16T01:55:29;10.00;99.90
34153;DHT22;20426;48.372;10.888;2023-05-16T01:56:01;10.00;99.90
34153;DHT22;20426;48.372;10.888;2023-05-16T01:56:34;10.00;99.90
34153;DHT22;20426;48.372;10.888;2023-05-16T01:57:06;10.00;99.90
34153;DHT22;20426;48.372;10.888;2023-05-16T01:57:39;10.00;99.90
34153;DHT22;20426;48.372;10.888;2023-05-16T01:58:15;10.00;99.90
34153;DHT22;20426;48.372;10.888;2023-05-16T01:58:47;10.00;99.90
34153;DHT22;20426;48.372;10.888;2023-05-16T01:59:19;10.10;99.90
34153;DHT22;20426;48.372;10.888;2023-05-16T01:59:52;10.10;99.90
34153;DHT22;20426;48.372;10.888;2023-05-16T02:00:23;10.10;99.90
34153;DHT22;20426;48.372;10.888;2023-05-16T02:00:55;10.10;99.90
34153;DHT22;20426;48.372;10.888;2023-05-16T02:01:29;10.10;99.90
34153;DHT22;20426;48.372;10.888;2023-05-16T02:02:01;10.10;99.90
34153;DHT22;20426;48.372;10.888;2023-05-16T02:02:32;10.00;99.90
34153;DHT22;20426;48.372;10.888;2023-05-16T02:03:03;10.00;99.90
34153;DHT22;20426;48.372;10.888;2023-05-16T02:03:34;10.00;99.90
34153;DHT22;20426;48.372;10.888;2023-05-16T02:04:05;10.00;99.90
34153;DHT22;20426;48.372;10.888;2023-05-16T02:04:36;10.00;99.90
34153;DHT22;20426;48.372;10.888;2023-05-16T02:05:07;10.00;99.90
34153;DHT22;20426;48.372;10.888;2023-05-16T02:05:37;10.00;99.90
34153;DHT22;20426;48.372;10.888;2023-05-16T02:06:08;9.90;99.90
34153;DHT22;20426;48.372;10.888;2023-05-16T02:06:39;9.90;99.90
34153;DHT22;20426;48.372;10.888;2023-05-16T02:07:11;9.90;99.90
34153;DHT22;20426;48.372;10.888;2023-05-16T02:07:44;9.90;99.90
34153;DHT22;20426;48.372;10.888;2023-05-16T02:08:14;9.90;99.90
34153;DHT22;20426;48.372;10.888;2023-05-16T02:08:46;9.90;99.90
34153;DHT22;20426;48.372;10.888;2023-05-16T02:09:17;9.90;99.90
34153;DHT22;20426;48.372;10.888;2023-05-16T02:09:47;9.80;99.90
34153;DHT22;20426;48.372;10.888;2023-05-16T02:10:18;9.80;99.90
34153;DHT22;20426;48.372;10.888;2023-05-16T02:10:49;9.80;99.90
34153;DHT22;20426;48.372;10.888;2023-05-16T02:11:20;9.80;99.90
34153;DHT22;20426;48.372;10.888;2023-05-16T02:11:52;9.80;99.90
34153;DHT22;20426;48.372;10.888;2023-05-16T02:12:24;9.70;99.90
34153;DHT22;20426;48.372;10.888;2023-05-16T02:12:54;9.70;99.90
34153;DHT22;20426;48.372;10.888;2023-05-16T02:13:25;9.80;99.90
34153;DHT22;20426;48.372;10.888;2023-05-16T02:13:56;9.80;99.90
34153;DHT22;20426;48.372;10.888;2023-05-16T02:14:27;9.80;99.90
34153;DHT22;20426;48.372;10.888;2023-05-16T02:14:58;9.70;99.90
34153;DHT22;20426;48.372;10.888;2023-05-16T02:15:29;9.70;99.90
34153;DHT22;20426;48.372;10.888;2023-05-16T02:16:00;9.70;99.90
34153;DHT22;20426;48.372;10.888;2023-05-16T02:16:31;9.70;99.90
34153;DHT22;20426;48.372;10.888;2023-05-16T02:17:01;9.70;99.90
34153;DHT22;20426;48.372;10.888;2023-05-16T02:17:32;9.70;99.90
34153;DHT22;20426;48.372;10.888;2023-05-16T02:18:03;9.70;99.90
34153;DHT22;20426;48.372;10.888;2023-05-16T02:18:33;9.70;99.90
34153;DHT22;20426;48.372;10.888;2023-05-16T02:19:04;9.70;99.90
34153;DHT22;20426;48.372;10.888;2023-05-16T02:19:35;9.70;99.90
34153;DHT22;20426;48.372;10.888;2023-05-16T02:20:06;9.70;99.90
34153;DHT22;20426;48.372;10.888;2023-05-16T02:20:39;9.70;99.90
34153;DHT22;20426;48.372;10.888;2023-05-16T02:21:10;9.70;99.90
34153;DHT22;20426;48.372;10.888;2023-05-16T02:21:41;9.70;99.90
34153;DHT22;20426;48.372;10.888;2023-05-16T02:22:11;9.70;99.90
34153;DHT22;20426;48.372;10.888;2023-05-16T02:22:42;9.80;99.90
34153;DHT22;20426;48.372;10.888;2023-05-16T02:23:13;9.80;99.90
34153;DHT22;20426;48.372;10.888;2023-05-16T02:23:44;9.70;99.90
34153;DHT22;20426;48.372;10.888;2023-05-16T02:24:15;9.80;99.90
34153;DHT22;20426;48.372;10.888;2023-05-16T02:24:46;9.70;99.90
34153;DHT22;20426;48.372;10.888;2023-05-16T02:25:16;9.70;99.90
34153;DHT22;20426;48.372;10.888;2023-05-16T02:25:47;9.70;99.90
34153;DHT22;20426;48.372;10.888;2023-05-16T02:26:18;9.70;99.90
34153;DHT22;20426;48.372;10.888;2023-05-16T02:26:49;9.70;99.90
34153;DHT22;20426;48.372;10.888;2023-05-16T02:27:19;9.70;99.90
34153;DHT22;20426;48.372;10.888;2023-05-16T02:27:50;9.70;99.90
34153;DHT22;20426;48.372;10.888;2023-05-16T02:28:21;9.70;99.90
34153;DHT22;20426;48.372;10.888;2023-05-16T02:28:51;9.70;99.90
34153;DHT22;20426;48.372;10.888;2023-05-16T02:29:23;9.70;99.90
34153;DHT22;20426;48.372;10.888;2023-05-16T02:29:54;9.70;99.90
34153;DHT22;20426;48.372;10.888;2023-05-16T02:30:25;9.70;99.90
34153;DHT22;20426;48.372;10.888;2023-05-16T02:30:57;9.60;99.90
34153;DHT22;20426;48.372;10.888;2023-05-16T02:31:32;9.70;99.90
34153;DHT22;20426;48.372;10.888;2023-05-16T02:32:04;9.70;99.90
34153;DHT22;20426;48.372;10.888;2023-05-16T02:32:35;9.70;99.90
34153;DHT22;20426;48.372;10.888;2023-05-16T02:33:05;9.70;99.90
34153;DHT22;20426;48.372;10.888;2023-05-16T02:33:36;9.70;99.90
34153;DHT22;20426;48.372;10.888;2023-05-16T02:34:07;9.70;99.90
34153;DHT22;20426;48.372;10.888;2023-05-16T02:34:38;9.70;99.90
34153;DHT22;20426;48.372;10.888;2023-05-16T02:35:09;9.70;99.90
34153;DHT22;20426;48.372;10.888;2023-05-16T02:35:40;9.70;99.90
34153;DHT22;20426;48.372;10.888;2023-05-16T02:36:11;9.70;99.90
34153;DHT22;20426;48.372;10.888;2023-05-16T02:36:41;9.70;99.90
34153;DHT22;20426;48.372;10.888;2023-05-16T02:37:12;9.70;99.90
34153;DHT22;20426;48.372;10.888;2023-05-16T02:37:43;9.70;99.90
34153;DHT22;20426;48.372;10.888;2023-05-16T02:38:13;9.70;99.90
34153;DHT22;20426;48.372;10.888;2023-05-16T02:38:46;9.70;99.90
34153;DHT22;20426;48.372;10.888;2023-05-16T02:39:17;9.70;99.90
34153;DHT22;20426;48.372;10.888;2023-05-16T02:39:48;9.70;99.90
34153;DHT22;20426;48.372;10.888;2023-05-16T02:40:19;9.70;99.90
34153;DHT22;20426;48.372;10.888;2023-05-16T02:40:49;9.70;99.90
34153;DHT22;20426;48.372;10.888;2023-05-16T02:41:20;9.70;99.90
34153;DHT22;20426;48.372;10.888;2023-05-16T02:41:51;9.70;99.90
34153;DHT22;20426;48.372;10.888;2023-05-16T02:42:22;9.70;99.90
34153;DHT22;20426;48.372;10.888;2023-05-16T02:42:53;9.70;99.90
34153;DHT22;20426;48.372;10.888;2023-05-16T02:43:23;9.70;99.90
34153;DHT22;20426;48.372;10.888;2023-05-16T02:43:54;9.70;99.90
34153;DHT22;20426;48.372;10.888;2023-05-16T02:44:25;9.70;99.90
34153;DHT22;20426;48.372;10.888;2023-05-16T02:44:56;9.70;99.90
34153;DHT22;20426;48.372;10.888;2023-05-16T02:45:26;9.70;99.90
34153;DHT22;20426;48.372;10.888;2023-05-16T02:45:57;9.70;99.90
34153;DHT22;20426;48.372;10.888;2023-05-16T02:46:28;9.70;99.90
34153;DHT22;20426;48.372;10.888;2023-05-16T02:47:02;9.70;99.90
34153;DHT22;20426;48.372;10.888;2023-05-16T02:47:33;9.70;99.90
34153;DHT22;20426;48.372;10.888;2023-05-16T02:48:04;9.70;99.90
34153;DHT22;20426;48.372;10.888;2023-05-16T02:48:35;9.70;99.90
34153;DHT22;20426;48.372;10.888;2023-05-16T02:49:05;9.70;99.90
34153;DHT22;20426;48.372;10.888;2023-05-16T02:49:36;9.70;99.90
34153;DHT22;20426;48.372;10.888;2023-05-16T02:50:07;9.70;99.90
34153;DHT22;20426;48.372;10.888;2023-05-16T02:50:38;9.70;99.90
34153;DHT22;20426;48.372;10.888;2023-05-16T02:51:09;9.70;99.90
34153;DHT22;20426;48.372;10.888;2023-05-16T02:51:40;9.70;99.90
34153;DHT22;20426;48.372;10.888;2023-05-16T02:52:11;9.70;99.90
34153;DHT22;20426;48.372;10.888;2023-05-16T02:52:42;9.70;99.90
34153;DHT22;20426;48.372;10.888;2023-05-16T02:53:13;9.70;99.90
34153;DHT22;20426;48.372;10.888;2023-05-16T02:53:43;9.70;99.90
34153;DHT22;20426;48.372;10.888;2023-05-16T02:54:15;9.60;99.90
34153;DHT22;20426;48.372;10.888;2023-05-16T02:54:45;9.70;99.90
34153;DHT22;20426;48.372;10.888;2023-05-16T02:55:16;9.70;99.90
34153;DHT22;20426;48.372;10.888;2023-05-16T02:55:47;9.70;99.90
34153;DHT22;20426;48.372;10.888;2023-05-16T02:56:18;9.70;99.90
34153;DHT22;20426;48.372;10.888;2023-05-16T02:56:49;9.60;99.90
34153;DHT22;20426;48.372;10.888;2023-05-16T02:57:19;9.70;99.90
34153;DHT22;20426;48.372;10.888;2023-05-16T02:57:50;9.60;99.90
34153;DHT22;20426;48.372;10.888;2023-05-16T02:58:21;9.60;99.90
34153;DHT22;20426;48.372;10.888;2023-05-16T02:58:53;9.60;99.90
34153;DHT22;20426;48.372;10.888;2023-05-16T02:59:24;9.60;99.90
34153;DHT22;20426;48.372;10.888;2023-05-16T02:59:54;9.60;99.90
34153;DHT22;20426;48.372;10.888;2023-05-16T03:00:26;9.60;99.90
34153;DHT22;20426;48.372;10.888;2023-05-16T03:00:56;9.60;99.90
34153;DHT22;20426;48.372;10.888;2023-05-16T03:01:27;9.60;99.90
34153;DHT22;20426;48.372;10.888;2023-05-16T03:01:58;9.60;99.90
34153;DHT22;20426;48.372;10.888;2023-05-16T03:02:29;9.60;99.90
34153;DHT22;20426;48.372;10.888;2023-05-16T03:02:59;9.60;99.90
34153;DHT22;20426;48.372;10.888;2023-05-16T03:03:30;9.60;99.90
34153;DHT22;20426;48.372;10.888;2023-05-16T03:04:02;9.70;99.90
34153;DHT22;20426;48.372;10.888;2023-05-16T03:04:34;9.70;99.90
34153;DHT22;20426;48.372;10.888;2023-05-16T03:05:05;9.60;99.90
34153;DHT22;20426;48.372;10.888;2023-05-16T03:05:36;9.70;99.90
34153;DHT22;20426;48.372;10.888;2023-05-16T03:06:07;9.60;99.90
34153;DHT22;20426;48.372;10.888;2023-05-16T03:06:37;9.60;99.90
34153;DHT22;20426;48.372;10.888;2023-05-16T03:07:08;9.60;99.90
34153;DHT22;20426;48.372;10.888;2023-05-16T03:07:40;9.60;99.90
34153;DHT22;20426;48.372;10.888;2023-05-16T03:08:11;9.60;99.90
34153;DHT22;20426;48.372;10.888;2023-05-16T03:08:42;9.60;99.90
34153;DHT22;20426;48.372;10.888;2023-05-16T03:09:12;9.60;99.90
34153;DHT22;20426;48.372;10.888;2023-05-16T03:09:43;9.60;99.90
34153;DHT22;20426;48.372;10.888;2023-05-16T03:10:14;9.60;99.90
34153;DHT22;20426;48.372;10.888;2023-05-16T03:10:44;9.60;99.90
34153;DHT22;20426;48.372;10.888;2023-05-16T03:11:18;9.60;99.90
34153;DHT22;20426;48.372;10.888;2023-05-16T03:11:52;9.60;99.90
34153;DHT22;20426;48.372;10.888;2023-05-16T03:12:22;9.50;99.90
34153;DHT22;20426;48.372;10.888;2023-05-16T03:12:53;9.50;99.90
34153;DHT22;20426;48.372;10.888;2023-05-16T03:13:24;9.50;99.90
34153;DHT22;20426;48.372;10.888;2023-05-16T03:13:54;9.50;99.90
34153;DHT22;20426;48.372;10.888;2023-05-16T03:14:25;9.50;99.90
34153;DHT22;20426;48.372;10.888;2023-05-16T03:14:56;9.50;99.90
34153;DHT22;20426;48.372;10.888;2023-05-16T03:15:27;9.50;99.90
34153;DHT22;20426;48.372;10.888;2023-05-16T03:15:57;9.50;99.90
34153;DHT22;20426;48.372;10.888;2023-05-16T03:16:28;9.50;99.90
34153;DHT22;20426;48.372;10.888;2023-05-16T03:16:59;9.50;99.90
34153;DHT22;20426;48.372;10.888;2023-05-16T03:17:30;9.50;99.90
34153;DHT22;20426;48.372;10.888;2023-05-16T03:18:01;9.50;99.90
34153;DHT22;20426;48.372;10.888;2023-05-16T03:18:31;9.50;99.90
34153;DHT22;20426;48.372;10.888;2023-05-16T03:19:02;9.50;99.90
34153;DHT22;20426;48.372;10.888;2023-05-16T03:19:33;9.50;99.90
34153;DHT22;20426;48.372;10.888;2023-05-16T03:20:04;9.50;99.90
34153;DHT22;20426;48.372;10.888;2023-05-16T03:20:38;9.50;99.90
34153;DHT22;20426;48.372;10.888;2023-05-16T03:21:08;9.40;99.90
34153;DHT22;20426;48.372;10.888;2023-05-16T03:21:39;9.50;99.90
34153;DHT22;20426;48.372;10.888;2023-05-16T03:22:10;9.50;99.90
34153;DHT22;20426;48.372;10.888;2023-05-16T03:22:41;9.50;99.90
34153;DHT22;20426;48.372;10.888;2023-05-16T03:23:12;9.50;99.90
34153;DHT22;20426;48.372;10.888;2023-05-16T03:23:42;9.50;99.90
34153;DHT22;20426;48.372;10.888;2023-05-16T03:24:13;9.50;99.90
34153;DHT22;20426;48.372;10.888;2023-05-16T03:24:44;9.50;99.90
34153;DHT22;20426;48.372;10.888;2023-05-16T03:25:15;9.50;99.90
34153;DHT22;20426;48.372;10.888;2023-05-16T03:25:46;9.50;99.90
34153;DHT22;20426;48.372;10.888;2023-05-16T03:26:17;9.50;99.90
34153;DHT22;20426;48.372;10.888;2023-05-16T03:26:48;9.50;99.90
34153;DHT22;20426;48.372;10.888;2023-05-16T03:27:19;9.50;99.90
34153;DHT22;20426;48.372;10.888;2023-05-16T03:27:49;9.60;99.90
34153;DHT22;20426;48.372;10.888;2023-05-16T03:28:20;9.60;99.90
34153;DHT22;20426;48.372;10.888;2023-05-16T03:28:51;9.50;99.90
34153;DHT22;20426;48.372;10.888;2023-05-16T03:29:22;9.50;99.90
34153;DHT22;20426;48.372;10.888;2023-05-16T03:29:53;9.60;99.90
34153;DHT22;20426;48.372;10.888;2023-05-16T03:30:24;9.60;99.90
34153;DHT22;20426;48.372;10.888;2023-05-16T03:30:55;9.60;99.90
34153;DHT22;20426;48.372;10.888;2023-05-16T03:31:26;9.60;99.90